Whitesboro, Texas
Current Conditions -  °F | °C
As of 7:35 AM on Saturday 25 Oct 2014 (Local Time) from KGYI Reporting Station
Clear Clear  
Wind Chill: 65°   Ceiling: Unl
Heat Index: 65°   Visibility: 10mi
Dew Point: 60°   Wind: 9mph
Humidity: 86%   Direction: 180°S
Pressure: 30.11"   Gusts: NA
Location:  33.66°N, 96.91°W
Report Text: KGYI 251235Z AUTO 18008KT 10SM CLR 18/16 A3011 RMK AO2 T01810157
Loading
Personal Weather Stations






























Interactive Weather Map
Tropical Storm Tracking
New forecast layout! Learn more

10-Day Weather Forecast

Advertisements
Track Severe Weather on mobile